Flight Track Log - Related Links

Times and Time Zones

All times are in EDT time to prevent confusion due to time zone crossing. See the PDT4226 flight status page for this flight to view local times or setup timezone preferences in your user account.

Time Position Orientation Groundspeed Altitude Reporting Facility
EDT Latitude Longitude Course Direction KTS MPH feet Rate Location/Type
Sat 01:52:00 PM 41.9713 -75.9021 154° Southeast  Level Estimated
Sat 01:53:00 PM 41.9120 -75.8828 160° South  Level Estimated
Sat 01:54:00 PM 41.8527 -75.8636 159° South  Level Estimated
Sat 01:55:00 PM 41.7923 -75.8526 172° South  Level FlightAware Approximate
Sat 01:56:00 PM 41.7330 -75.8332 153° Southeast  Level Estimated
Sat 01:57:00 PM 41.6737 -75.8138 161° South  Level Estimated
Sat 01:58:00 PM 41.6144 -75.7947 166° South  Level FlightAware Approximate
Sat 01:59:00 PM 41.5551 -75.7756 166° South  Level FlightAware Approximate
Sat 02:00:00 PM 41.4958 -75.7563 162° South  Level Estimated
Sat 02:01:00 PM 41.4372 -75.7337 164° South  Level FlightAware Approximate
Sat 02:02:00 PM 41.3786 -75.7112 164° South  Level FlightAware Approximate
Sat 02:03:00 PM 41.3200 -75.6887 164° South  Level FlightAware Approximate
Sat 02:04:00 PM 41.2614 -75.6662 164° South  Level FlightAware Approximate
Sat 02:05:00 PM 41.2020 -75.6477 163° South  Level Estimated
Sat 02:06:00 PM 41.1437 -75.6238 163° South  Level FlightAware Approximate
Sat 02:07:00 PM 41.0854 -75.5999 163° South  Level FlightAware Approximate
Sat 02:08:00 PM 41.0271 -75.5761 163° South  Level FlightAware Approximate
Sat 02:09:00 PM 40.9688 -75.5523 163° South  Level FlightAware Approximate
Sat 02:10:00 PM 40.9092 -75.5351 190° South  Level Estimated
Sat 02:11:00 PM 40.8483 -75.5299 176° South  Level FlightAware Approximate
Sat 02:12:00 PM 40.7874 -75.5246 176° South  Level FlightAware Approximate
Sat 02:13:00 PM 40.7281 -75.5060 187° South  Level Estimated
Sat 02:14:00 PM 40.6671 -75.5080 181° South  Level FlightAware Approximate
Sat 02:15:00 PM 40.6080 -75.4879 190° South  Level Estimated
Sat 02:16:00 PM 40.5475 -75.4984 188° South  Level FlightAware Approximate
Sat 02:17:00 PM 40.4890 -75.4759 180° South  Level Estimated
Sat 02:17:00 PM 40.6833 -75.6000 180° South 252 290 6,500  Level Philadelphia TRACON
Sat 02:17:48 PM 40.6333 -75.6000 180° South 232 267 5,300 -833 Descending Philadelphia TRACON
Sat 02:18:00 PM 40.4304 -75.4534 143° Southeast  Level Estimated
Sat 02:18:48 PM 40.5833 -75.6000 180° South 215 247 5,000  Level Philadelphia TRACON
Sat 02:19:00 PM 40.3719 -75.4309 143° Southeast  Level Estimated
Sat 02:19:48 PM 40.5167 -75.5833 169° South 215 247 5,000  Level Philadelphia TRACON
Sat 02:20:00 PM 40.3133 -75.4085 143° Southeast  Level Estimated
Sat 02:20:54 PM 40.4667 -75.5333 143° Southeast 226 260 5,000  Level Philadelphia TRACON
Sat 02:21:00 PM 40.2547 -75.3861 143° Southeast  Level Estimated
Sat 02:21:48 PM 40.4167 -75.4833 143° Southeast 224 258 5,000  Level Philadelphia TRACON
Sat 02:22:00 PM 40.1962 -75.3637 180° South  Level Estimated
Sat 02:22:48 PM 40.3833 -75.4333 131° Southeast 225 259 5,000  Level Philadelphia TRACON
Sat 02:23:36 PM 40.3333 -75.3833 143° Southeast 225 259 5,000 -53 Level Philadelphia TRACON
Sat 02:24:42 PM 40.3000 -75.3167 123° Southeast 227 261 4,900 -472 Descending Philadelphia TRACON
Sat 02:25:43 PM 40.2500 -75.2500 134° Southeast 242 278 4,000 -397 Descending Philadelphia TRACON
Sat 02:26:43 PM 40.2000 -75.2000 143° Southeast 203 234 4,100  Climbing Philadelphia TRACON
Sat 02:27:49 PM 40.1667 -75.1500 131° Southeast 192 221 4,000  Descending Philadelphia TRACON
Sat 02:28:55 PM 40.1167 -75.1000 143° Southeast 190 219 4,100  Climbing Philadelphia TRACON
Sat 02:29:43 PM 40.0833 -75.0500 131° Southeast 196 226 4,000 -50 Descending Philadelphia TRACON
Sat 02:30:55 PM 40.0333 -75.0000 143° Southeast 197 227 4,000  Level Philadelphia TRACON
Sat 02:31:43 PM 40.0167 -74.9500 114° Southeast 207 238 4,000  Level Philadelphia TRACON
Sat 02:32:43 PM 40.0333 -74.8667 75° East 213 245 4,000 50 Level Philadelphia TRACON
Sat 02:33:43 PM 40.0000 -74.8500 159° South 178 205 4,100  Climbing Philadelphia TRACON
Sat 02:34:49 PM 39.9667 -74.9000 229° Southwest 190 219 4,000 -48 Descending Philadelphia TRACON
Sat 02:35:49 PM 39.9333 -74.9667 237° Southwest 182 209 4,000 -400 Level Philadelphia TRACON
Sat 02:36:49 PM 39.9333 -75.0333 270° West 190 219 3,200 -950 Descending Philadelphia TRACON
Sat 02:37:49 PM 39.9167 -75.1000 252° West 187 215 2,100 -1,050 Descending Philadelphia TRACON
Sat 02:38:49 PM 39.9000 -75.1500 247° West 155 178 1,100 -850 Descending Philadelphia TRACON
Sat 02:39:49 PM 39.8833 -75.2000 247° West 108 124 400 -700 Descending Philadelphia TRACON

Login

Don't have an account? Register now (free) for customized features, flight alerts, and more!